AS5 weather

CLOSED Beaver River Airport
British Columbia, Canada

Public forecast

Using degrees Celsius for public forecast. Weather courtesy of forecast.io.

Closest aviation weather report (METAR) to Beaver River Airport

Report is more than 6 hours old.

Closest report is Fort Liard Airport, 27.1 nm (50.2 km) NE. Retrieved 2019/10/20 00:38 UTC (1 day ago):

CYJF 200038Z 03005KT 7SM PRFG SCT011 BKN023 OVC046 01/00 A2971 RMK SF3SC4SC1 FG BNK TPG HILL NW 4/LAST STFD OBS/NXT 211400Z SLP073

Closest aviation forecast (TAF) to Beaver River Airport

Closest forecast is Fort Nelson Airport, 84.0 nm (155.5 km) SE. Retrieved 2019/10/21 07:39 UTC (1 hour ago):

TAF CYYE 210638Z 2107/2119 VRB03KT P6SM OVC012 TEMPO 2107/2109 3SM -DZSN BR OVC006 FM210900 VRB03KT P6SM SCT003 OVC006 TEMPO 2109/2116 1SM -SN BR OVC003 PROB40 2109/2116 1/2SM FZFG VV002 FM211600 VRB03KT P6SM FEW003 SCT006 RMK NXT FCST BY 211300Z